createdAt,value
2023-02-14T00:00:49.740Z,20.93
2023-02-14T00:03:16.596Z,23.03
2023-02-14T00:05:43.907Z,25.87
2023-02-14T00:08:10.876Z,22.63
2023-02-14T00:10:37.738Z,19.50
2023-02-14T00:13:06.216Z,20.27
2023-02-14T00:15:33.037Z,22.50
2023-02-14T00:18:00.306Z,19.83
2023-02-14T00:20:28.376Z,23.33
2023-02-14T00:22:55.805Z,21.00
2023-02-14T00:25:22.874Z,24.53
2023-02-14T00:27:50.023Z,22.97
2023-02-14T00:30:18.272Z,24.37
2023-02-14T00:32:45.412Z,22.57
2023-02-14T00:35:12.504Z,22.87
2023-02-14T00:37:39.779Z,25.67
2023-02-14T00:40:07.909Z,23.03
2023-02-14T00:42:35.204Z,25.93
2023-02-14T00:45:02.108Z,24.33
2023-02-14T00:47:30.655Z,24.47
2023-02-14T00:50:02.684Z,23.20
2023-02-14T00:52:30.214Z,22.50
2023-02-14T00:54:57.228Z,21.70
2023-02-14T00:57:24.058Z,24.90
2023-02-14T00:59:51.237Z,22.87
2023-02-14T01:02:18.305Z,25.93
2023-02-14T01:04:47.251Z,27.17
2023-02-14T01:07:14.229Z,22.23
2023-02-14T01:09:41.481Z,22.60
2023-02-14T01:12:08.469Z,26.47
2023-02-14T01:14:35.650Z,22.83
2023-02-14T01:17:02.598Z,22.97
2023-02-14T01:19:29.845Z,26.40
2023-02-14T01:21:58.191Z,23.47
2023-02-14T01:24:27.019Z,21.87
2023-02-14T01:26:53.945Z,23.73
2023-02-14T01:29:21.213Z,23.80
2023-02-14T01:31:49.295Z,23.50
2023-02-14T01:34:16.810Z,21.60
2023-02-14T01:36:43.860Z,21.67
2023-02-14T01:39:15.098Z,25.53
2023-02-14T01:41:44.419Z,24.77
2023-02-14T01:44:45.149Z,24.77
2023-02-14T01:47:12.753Z,23.67
2023-02-14T01:49:43.379Z,24.47
2023-02-14T01:52:14.108Z,26.27
2023-02-14T01:54:47.917Z,25.13
2023-02-14T01:57:20.871Z,23.93
2023-02-14T01:59:52.072Z,27.97
2023-02-14T02:02:23.972Z,24.17
2023-02-14T02:04:56.416Z,23.20
2023-02-14T02:07:25.598Z,25.00
2023-02-14T02:09:56.922Z,26.23
2023-02-14T02:12:24.293Z,26.03
2023-02-14T02:14:55.026Z,24.73
2023-02-14T02:17:32.340Z,27.20
2023-02-14T02:20:30.089Z,25.37
2023-02-14T02:23:28.120Z,25.20
2023-02-14T02:26:28.827Z,25.70
2023-02-14T02:29:24.884Z,26.73
2023-02-14T02:32:22.833Z,27.50
2023-02-14T02:35:18.012Z,26.67
2023-02-14T02:37:56.322Z,30.63
2023-02-14T02:40:33.904Z,27.43
2023-02-14T02:43:11.932Z,27.20
2023-02-14T02:46:05.969Z,33.83
2023-02-14T02:48:40.409Z,28.70
2023-02-14T02:51:35.150Z,30.93
2023-02-14T02:54:07.356Z,32.27
2023-02-14T02:56:45.395Z,30.47
2023-02-14T02:59:21.043Z,32.20
2023-02-14T03:01:52.313Z,31.63
2023-02-14T03:04:39.584Z,32.07
2023-02-14T03:07:26.441Z,31.07
2023-02-14T03:09:57.754Z,35.03
2023-02-14T03:13:01.391Z,34.13
2023-02-14T03:15:41.593Z,32.53
2023-02-14T03:18:15.435Z,34.77
2023-02-14T03:20:53.452Z,35.70
2023-02-14T03:23:27.648Z,33.50
2023-02-14T03:26:04.292Z,32.97
2023-02-14T03:28:38.736Z,35.90
2023-02-14T03:31:13.126Z,31.37
2023-02-14T03:33:47.366Z,33.50
2023-02-14T03:36:19.052Z,34.70
2023-02-14T03:38:55.669Z,35.17
2023-02-14T03:41:26.500Z,33.73
2023-02-14T03:43:57.373Z,35.73
2023-02-14T03:46:28.832Z,33.33
2023-02-14T03:48:59.859Z,33.43
2023-02-14T03:51:34.142Z,34.33
2023-02-14T03:54:04.723Z,30.87
2023-02-14T03:56:37.625Z,34.87
2023-02-14T03:59:08.895Z,29.00
2023-02-14T04:01:39.636Z,31.87
2023-02-14T04:04:08.822Z,31.17
2023-02-14T04:06:36.163Z,34.53
2023-02-14T04:09:04.447Z,31.03
2023-02-14T04:11:35.110Z,34.57
2023-02-14T04:14:02.370Z,29.77
2023-02-14T04:16:29.453Z,31.23
2023-02-14T04:19:15.132Z,34.17
2023-02-14T04:21:42.197Z,32.13
2023-02-14T04:24:10.462Z,30.87
2023-02-14T04:26:37.346Z,33.87
2023-02-14T04:29:04.826Z,35.23
2023-02-14T04:31:31.754Z,34.57
2023-02-14T04:33:59.105Z,30.80
2023-02-14T04:36:26.022Z,32.50
2023-02-14T04:38:53.327Z,31.97
2023-02-14T04:41:21.518Z,33.27
2023-02-14T04:43:48.758Z,32.63
2023-02-14T04:46:15.704Z,31.87
2023-02-14T04:48:42.961Z,31.63
2023-02-14T04:51:10.020Z,32.33
2023-02-14T04:53:40.326Z,32.20
2023-02-14T04:56:07.712Z,27.73
2023-02-14T04:58:37.529Z,32.63
2023-02-14T05:01:04.497Z,31.80
2023-02-14T05:03:31.816Z,27.57
2023-02-14T05:05:58.773Z,26.40
2023-02-14T05:08:26.117Z,31.00
2023-02-14T05:10:54.344Z,29.83
2023-02-14T05:13:21.619Z,29.10
2023-02-14T05:15:49.861Z,29.70
2023-02-14T05:18:17.195Z,28.03
2023-02-14T05:20:44.134Z,26.00
2023-02-14T05:23:14.022Z,29.97
2023-02-14T05:25:41.027Z,28.63
2023-02-14T05:28:08.136Z,31.60
2023-02-14T05:30:35.228Z,28.43
2023-02-14T05:33:04.275Z,32.90
2023-02-14T05:35:31.848Z,32.50
2023-02-14T05:37:59.368Z,55.47
2023-02-14T05:40:26.876Z,38.50
2023-02-14T05:42:55.865Z,35.43
2023-02-14T05:45:23.624Z,40.20
2023-02-14T05:47:51.659Z,35.53
2023-02-14T05:50:20.664Z,47.50
2023-02-14T05:52:47.925Z,40.37
2023-02-14T05:55:14.895Z,53.07
2023-02-14T05:57:42.917Z,54.70
2023-02-14T06:00:11.282Z,44.73
2023-02-14T06:02:38.703Z,40.90
2023-02-14T06:05:06.309Z,29.40
2023-02-14T06:07:35.065Z,71.87
2023-02-14T06:10:02.005Z,72.33
2023-02-14T06:12:29.245Z,43.13
2023-02-14T06:14:56.155Z,43.40
2023-02-14T06:17:23.407Z,43.70
2023-02-14T06:19:50.387Z,40.67
2023-02-14T06:22:17.304Z,42.40
2023-02-14T06:24:45.584Z,44.67
2023-02-14T06:27:12.838Z,30.83
2023-02-14T06:29:39.730Z,23.90
2023-02-14T06:32:07.417Z,29.47
2023-02-14T06:34:34.559Z,28.13
2023-02-14T06:37:01.808Z,30.57
2023-02-14T06:39:28.897Z,75.10
2023-02-14T06:41:57.429Z,56.27
2023-02-14T06:44:24.361Z,48.93
2023-02-14T06:46:51.653Z,19.40
2023-02-14T06:49:18.567Z,25.87
2023-02-14T06:51:45.863Z,31.80
2023-02-14T06:54:12.921Z,32.90
2023-02-14T06:56:40.117Z,29.50
2023-02-14T06:59:08.482Z,28.60
2023-02-14T07:01:35.758Z,41.13
2023-02-14T07:04:02.725Z,23.90
2023-02-14T07:06:29.933Z,27.80
2023-02-14T07:08:56.842Z,23.17
2023-02-14T07:11:23.895Z,56.70
2023-02-14T07:13:50.939Z,34.87
2023-02-14T07:16:19.304Z,41.20
2023-02-14T07:18:46.374Z,21.57
2023-02-14T07:21:13.787Z,50.70
2023-02-14T07:23:40.793Z,34.87
2023-02-14T07:26:08.163Z,39.80
2023-02-14T07:28:35.070Z,24.80
2023-02-14T07:31:03.239Z,19.97
2023-02-14T07:33:31.791Z,29.30
2023-02-14T07:35:59.061Z,48.73
2023-02-14T07:38:25.989Z,26.67
2023-02-14T07:40:53.790Z,21.83
2023-02-14T07:43:20.714Z,18.80
2023-02-14T07:45:48.531Z,22.23
2023-02-14T07:48:15.462Z,21.07
2023-02-14T07:50:44.181Z,20.40
2023-02-14T07:53:11.473Z,16.63
2023-02-14T07:55:39.614Z,16.23
2023-02-14T07:58:06.646Z,23.63
2023-02-14T08:00:34.064Z,20.43
2023-02-14T08:03:00.996Z,22.47
2023-02-14T08:05:28.087Z,24.27
2023-02-14T08:07:56.281Z,26.17
2023-02-14T08:10:23.305Z,29.07
2023-02-14T08:12:59.503Z,21.07
2023-02-14T08:15:45.214Z,28.17
2023-02-14T08:18:12.539Z,19.23
2023-02-14T08:20:39.733Z,28.27
2023-02-14T08:23:08.053Z,24.23
2023-02-14T08:25:35.369Z,14.83
2023-02-14T08:28:03.357Z,12.97
2023-02-14T08:30:31.068Z,28.67
2023-02-14T08:32:58.194Z,11.57
2023-02-14T08:35:26.067Z,17.70
2023-02-14T08:37:53.266Z,14.33
2023-02-14T08:40:21.919Z,21.47
2023-02-14T08:42:48.898Z,17.57
2023-02-14T08:45:16.026Z,28.23
2023-02-14T08:47:43.063Z,17.10
2023-02-14T08:50:12.412Z,24.90
2023-02-14T08:52:40.031Z,21.77
2023-02-14T08:55:07.558Z,23.27
2023-02-14T08:57:36.000Z,15.03
2023-02-14T09:00:04.462Z,20.43
2023-02-14T09:02:31.403Z,18.83
2023-02-14T09:04:58.378Z,14.53
2023-02-14T09:07:25.320Z,14.77
2023-02-14T09:09:52.248Z,12.37
2023-02-14T09:12:19.705Z,11.70
2023-02-14T09:14:48.144Z,16.70
2023-02-14T09:17:16.204Z,11.50
2023-02-14T09:19:43.139Z,11.70
2023-02-14T09:22:11.578Z,13.03
2023-02-14T09:24:39.828Z,12.60
2023-02-14T09:27:07.536Z,15.77
2023-02-14T09:29:35.142Z,13.57
2023-02-14T09:32:03.984Z,13.87
2023-02-14T09:34:51.419Z,14.60
2023-02-14T09:37:18.343Z,13.70
2023-02-14T09:39:45.270Z,13.33
2023-02-14T09:42:46.017Z,13.93
2023-02-14T09:45:15.325Z,12.97
2023-02-14T09:47:47.578Z,13.27
2023-02-14T09:50:20.681Z,13.90
2023-02-14T09:52:52.369Z,13.00
2023-02-14T09:55:19.709Z,15.10
2023-02-14T09:58:03.514Z,15.70
2023-02-14T10:00:37.527Z,14.37
2023-02-14T10:03:30.717Z,14.83
2023-02-14T10:06:03.154Z,13.73
2023-02-14T10:08:44.783Z,15.97
2023-02-14T10:11:15.641Z,15.53
2023-02-14T10:13:46.261Z,15.93
2023-02-14T10:16:20.961Z,14.87
2023-02-14T10:18:54.153Z,10.23
2023-02-14T10:21:25.905Z,11.77
2023-02-14T10:24:00.927Z,11.80
2023-02-14T10:26:33.902Z,16.03
2023-02-14T10:29:02.724Z,22.47
2023-02-14T10:31:38.030Z,12.90
2023-02-14T10:34:14.609Z,14.73
2023-02-14T10:36:56.153Z,12.20
2023-02-14T10:39:46.833Z,10.37
2023-02-14T10:42:24.098Z,10.07
2023-02-14T10:45:01.395Z,8.90
2023-02-14T10:47:37.679Z,9.03
2023-02-14T10:50:15.438Z,8.43
2023-02-14T10:52:50.945Z,9.80
2023-02-14T10:55:32.131Z,13.37
2023-02-14T10:58:04.139Z,13.90
2023-02-14T11:00:33.801Z,9.60
2023-02-14T11:03:05.509Z,8.77
2023-02-14T11:05:38.459Z,8.47
2023-02-14T11:08:14.816Z,9.73
2023-02-14T11:10:42.022Z,8.43
2023-02-14T11:13:29.936Z,8.73
2023-02-14T11:16:00.894Z,15.67
2023-02-14T11:18:33.116Z,11.53
2023-02-14T11:21:04.360Z,10.40
2023-02-14T11:23:36.690Z,9.10
2023-02-14T11:26:05.622Z,9.80
2023-02-14T11:28:34.146Z,10.97
2023-02-14T11:31:01.804Z,9.83
2023-02-14T11:33:35.184Z,9.57
2023-02-14T11:36:06.279Z,8.67
2023-02-14T11:38:36.827Z,8.57
2023-02-14T11:41:05.965Z,13.43
2023-02-14T11:43:34.322Z,10.10
2023-02-14T11:46:14.634Z,8.77
2023-02-14T11:48:56.449Z,10.03
2023-02-14T11:51:31.163Z,8.27
2023-02-14T11:54:05.465Z,8.13
2023-02-14T11:56:51.824Z,7.17
2023-02-14T11:59:27.938Z,7.90
2023-02-14T12:01:56.492Z,6.47
2023-02-14T12:04:32.804Z,7.50
2023-02-14T12:07:19.099Z,11.83
2023-02-14T12:09:46.948Z,7.18
2023-02-14T12:12:19.469Z,8.02
2023-02-14T12:14:46.994Z,6.50
2023-02-14T12:17:25.262Z,8.48
2023-02-14T12:19:59.701Z,9.13
2023-02-14T12:22:33.180Z,7.25
2023-02-14T12:25:05.586Z,10.88
2023-02-14T12:27:40.586Z,6.63
2023-02-14T12:30:15.224Z,6.85
2023-02-14T12:32:47.862Z,7.38
2023-02-14T12:35:16.808Z,6.70
2023-02-14T12:38:04.423Z,7.30
2023-02-14T12:40:41.833Z,11.05
2023-02-14T12:43:45.078Z,10.85
2023-02-14T12:49:23.286Z,6.80
2023-02-14T12:51:59.891Z,6.93
2023-02-14T12:54:46.051Z,6.00
2023-02-14T12:57:27.660Z,7.28
2023-02-14T13:00:07.878Z,6.20
2023-02-14T13:03:05.599Z,6.30
2023-02-14T13:05:45.088Z,9.77
2023-02-14T13:08:32.071Z,6.25
2023-02-14T13:11:07.202Z,7.30
2023-02-14T13:13:44.227Z,6.55
2023-02-14T13:16:18.745Z,7.88
2023-02-14T13:18:52.292Z,8.00
2023-02-14T13:21:24.724Z,7.43
2023-02-14T13:23:55.698Z,6.53
2023-02-14T13:26:29.231Z,6.30
2023-02-14T13:28:59.768Z,6.50
2023-02-14T13:31:27.462Z,6.60
2023-02-14T13:33:58.391Z,10.55
2023-02-14T13:36:27.434Z,6.82
2023-02-14T13:38:56.655Z,8.70
2023-02-14T13:41:28.227Z,9.25
2023-02-14T13:43:56.974Z,8.00
2023-02-14T13:46:51.043Z,7.43
2023-02-14T13:49:38.609Z,12.98
2023-02-14T13:52:06.845Z,9.20
2023-02-14T13:54:41.153Z,8.85
2023-02-14T13:57:31.763Z,10.52
2023-02-14T14:00:21.772Z,10.38
2023-02-14T14:02:50.023Z,11.95
2023-02-14T14:05:47.642Z,11.50
2023-02-14T14:08:38.865Z,10.80
2023-02-14T14:11:12.572Z,11.60
2023-02-14T14:13:57.832Z,12.60
2023-02-14T14:16:30.018Z,10.57
2023-02-14T14:18:59.477Z,12.13
2023-02-14T14:21:28.000Z,11.87
2023-02-14T14:24:21.488Z,13.80
2023-02-14T14:26:50.447Z,12.60
2023-02-14T14:29:23.033Z,12.43
2023-02-14T14:31:56.104Z,11.17
2023-02-14T14:34:26.261Z,14.47
2023-02-14T14:37:02.647Z,12.97
2023-02-14T14:39:31.109Z,15.07
2023-02-14T14:42:07.220Z,16.07
2023-02-14T14:44:37.776Z,16.17
2023-02-14T14:47:05.347Z,19.20
2023-02-14T14:49:33.036Z,18.00
2023-02-14T14:52:00.079Z,21.20
2023-02-14T14:54:27.942Z,19.10
2023-02-14T14:57:01.441Z,21.20
2023-02-14T14:59:31.220Z,23.07
2023-02-14T15:02:00.020Z,21.23
2023-02-14T15:04:28.912Z,23.50
2023-02-14T15:06:57.776Z,21.17
2023-02-14T15:09:31.692Z,25.40
2023-02-14T15:12:19.835Z,25.40
2023-02-14T15:14:58.883Z,23.83
2023-02-14T15:17:29.426Z,25.10
2023-02-14T15:19:59.063Z,27.53
2023-02-14T15:22:32.861Z,28.70
2023-02-14T15:24:59.868Z,29.33
2023-02-14T15:27:28.325Z,29.03
2023-02-14T15:29:58.236Z,29.87
2023-02-14T15:32:30.280Z,33.00
2023-02-14T15:34:58.099Z,31.07
2023-02-14T15:37:25.859Z,32.60
2023-02-14T15:39:58.180Z,35.00
2023-02-14T15:42:29.220Z,36.37
2023-02-14T15:45:15.634Z,39.40
2023-02-14T15:47:46.123Z,39.47
2023-02-14T15:50:15.881Z,38.57
2023-02-14T15:52:43.772Z,42.13
2023-02-14T15:55:12.646Z,41.50
2023-02-14T15:57:39.769Z,43.13
2023-02-14T16:00:16.908Z,42.30
2023-02-14T16:02:47.939Z,47.00
2023-02-14T16:05:18.271Z,48.40
2023-02-14T16:07:57.162Z,43.60
2023-02-14T16:10:25.418Z,45.60
2023-02-14T16:12:58.583Z,48.40
2023-02-14T16:15:27.236Z,52.53
2023-02-14T16:17:55.839Z,49.00
2023-02-14T16:20:29.126Z,52.53
2023-02-14T16:23:15.415Z,51.60
2023-02-14T16:25:42.494Z,56.30
2023-02-14T16:28:09.521Z,52.37
2023-02-14T16:30:37.540Z,56.73
2023-02-14T16:33:06.434Z,59.60
2023-02-14T16:35:34.246Z,59.03
2023-02-14T16:38:01.196Z,56.33
2023-02-14T16:40:28.984Z,59.63
2023-02-14T16:42:56.045Z,61.23
2023-02-14T16:45:23.092Z,67.10
2023-02-14T16:47:50.052Z,63.90
2023-02-14T16:50:20.663Z,64.20
2023-02-14T16:52:51.793Z,65.00
2023-02-14T16:55:20.897Z,63.30
2023-02-14T16:57:50.812Z,69.47
2023-02-14T17:00:18.147Z,68.40
2023-02-14T17:02:45.222Z,72.60
2023-02-14T17:05:12.798Z,73.57
2023-02-14T17:07:43.542Z,71.20
2023-02-14T17:10:17.348Z,67.60
2023-02-14T17:12:47.715Z,68.10
2023-02-14T17:15:18.806Z,73.77
2023-02-14T17:17:47.206Z,69.60
2023-02-14T17:20:14.994Z,67.80
2023-02-14T17:22:43.226Z,65.13
2023-02-14T17:25:10.261Z,65.97
2023-02-14T17:27:37.622Z,69.47
2023-02-14T17:30:06.357Z,72.27
2023-02-14T17:32:35.267Z,74.77
2023-02-14T17:35:03.735Z,69.23
2023-02-14T17:37:31.670Z,75.40
2023-02-14T17:40:00.585Z,71.43
2023-02-14T17:42:27.573Z,77.87
2023-02-14T17:44:54.453Z,80.50
2023-02-14T17:47:21.279Z,72.67
2023-02-14T17:49:48.463Z,70.33
2023-02-14T17:52:16.101Z,72.70
2023-02-14T17:54:43.916Z,109.77
2023-02-14T17:57:12.679Z,129.73
2023-02-14T17:59:39.841Z,77.47
2023-02-14T18:02:07.238Z,174.63
2023-02-14T18:04:36.325Z,103.87
2023-02-14T18:07:03.497Z,69.10
2023-02-14T18:09:31.054Z,106.07
2023-02-14T18:11:58.568Z,68.03
2023-02-14T18:14:27.337Z,68.37
2023-02-14T18:16:54.316Z,161.37
2023-02-14T18:19:21.771Z,106.53
2023-02-14T18:21:48.682Z,82.83
2023-02-14T18:24:16.128Z,69.83
2023-02-14T18:26:43.712Z,73.53
2023-02-14T18:29:10.941Z,69.47
2023-02-14T18:31:41.994Z,62.03
2023-02-14T18:34:09.530Z,62.50
2023-02-14T18:36:37.552Z,64.40
2023-02-14T18:39:05.653Z,52.03
2023-02-14T18:41:32.558Z,54.90
2023-02-14T18:44:00.280Z,54.77
2023-02-14T18:46:29.518Z,51.83
2023-02-14T18:48:58.487Z,50.77
2023-02-14T18:51:26.818Z,59.27
2023-02-14T18:53:55.779Z,65.47
2023-02-14T18:56:25.427Z,63.07
2023-02-14T18:58:55.906Z,63.67
2023-02-14T19:01:25.199Z,52.03
2023-02-14T19:03:54.229Z,50.13
2023-02-14T19:06:23.381Z,49.90
2023-02-14T19:08:51.095Z,54.47
2023-02-14T19:11:20.702Z,51.50
2023-02-14T19:13:50.586Z,54.87
2023-02-14T19:16:21.086Z,54.50
2023-02-14T19:18:49.789Z,59.60
2023-02-14T19:21:19.825Z,51.50
2023-02-14T19:23:48.716Z,54.37
2023-02-14T19:26:17.775Z,51.33
2023-02-14T19:28:45.790Z,52.87
2023-02-14T19:31:12.717Z,48.10
2023-02-14T19:33:40.777Z,46.33
2023-02-14T19:36:12.696Z,50.00
2023-02-14T19:38:40.433Z,47.97
2023-02-14T19:41:14.920Z,48.20
2023-02-14T19:43:43.359Z,42.53
2023-02-14T19:46:10.419Z,46.53
2023-02-14T19:48:37.426Z,47.80
2023-02-14T19:51:06.582Z,46.80
2023-02-14T19:53:34.283Z,42.27
2023-02-14T19:56:01.325Z,48.43
2023-02-14T19:58:29.643Z,47.93
2023-02-14T20:00:59.536Z,48.53
2023-02-14T20:03:26.917Z,49.27
2023-02-14T20:05:54.096Z,53.53
2023-02-14T20:08:21.851Z,51.97
2023-02-14T20:10:48.915Z,54.53
2023-02-14T20:13:15.860Z,54.80
2023-02-14T20:15:45.587Z,51.27
2023-02-14T20:18:12.494Z,58.50
2023-02-14T20:21:04.113Z,56.53
2023-02-14T20:23:33.078Z,57.87
2023-02-14T20:26:00.467Z,67.63
2023-02-14T20:28:27.495Z,61.70
2023-02-14T20:30:57.248Z,56.13
2023-02-14T20:33:24.272Z,67.03
2023-02-14T20:35:51.214Z,75.33
2023-02-14T20:38:18.173Z,76.63
2023-02-14T20:40:45.274Z,77.33
2023-02-14T20:43:12.263Z,85.83
2023-02-14T20:45:39.580Z,64.70
2023-02-14T20:48:08.126Z,59.60
2023-02-14T20:50:35.812Z,58.00
2023-02-14T20:53:02.804Z,57.77
2023-02-14T20:55:31.620Z,56.53
2023-02-14T20:58:02.386Z,60.63
2023-02-14T21:00:30.099Z,57.93
2023-02-14T21:02:58.874Z,53.37
2023-02-14T21:05:27.432Z,53.17
2023-02-14T21:07:54.413Z,57.17
2023-02-14T21:10:21.379Z,55.57
2023-02-14T21:12:48.785Z,60.80
2023-02-14T21:15:16.000Z,60.67
2023-02-14T21:17:43.238Z,60.40
2023-02-14T21:20:11.147Z,68.30
2023-02-14T21:22:41.066Z,62.10
2023-02-14T21:25:08.324Z,84.50
2023-02-14T21:27:35.302Z,76.17
2023-02-14T21:30:03.503Z,62.33
2023-02-14T21:32:30.471Z,62.87
2023-02-14T21:34:57.343Z,60.90
2023-02-14T21:37:24.552Z,65.47
2023-02-14T21:39:52.801Z,64.53
2023-02-14T21:42:21.380Z,62.43
2023-02-14T21:45:06.641Z,60.70
2023-02-14T21:47:37.181Z,64.03
2023-02-14T21:50:23.361Z,61.03
2023-02-14T21:52:50.892Z,63.33
2023-02-14T21:55:19.259Z,68.97
2023-02-14T21:57:46.733Z,64.57
2023-02-14T22:00:14.305Z,64.50
2023-02-14T22:02:41.804Z,69.23
2023-02-14T22:05:08.894Z,59.50
2023-02-14T22:07:36.231Z,62.90
2023-02-14T22:10:04.006Z,57.53
2023-02-14T22:12:32.574Z,60.93
2023-02-14T22:15:01.294Z,65.50
2023-02-14T22:17:28.637Z,64.50
2023-02-14T22:19:55.681Z,63.00
2023-02-14T22:22:22.748Z,64.80
2023-02-14T22:24:49.899Z,60.57
2023-02-14T22:27:17.233Z,60.73
2023-02-14T22:29:45.523Z,59.93
2023-02-14T22:32:12.894Z,57.50
2023-02-14T22:34:39.976Z,69.87
2023-02-14T22:37:07.657Z,71.80
2023-02-14T22:39:34.690Z,75.90
2023-02-14T22:42:06.688Z,74.07
2023-02-14T22:44:33.710Z,90.13
2023-02-14T22:47:02.338Z,89.73
2023-02-14T22:49:29.359Z,80.80
2023-02-14T22:51:56.321Z,84.07
2023-02-14T22:54:23.298Z,79.70
2023-02-14T22:56:53.412Z,85.07
2023-02-14T22:59:22.313Z,82.53
2023-02-14T23:01:51.236Z,82.97
2023-02-14T23:04:21.777Z,88.67
2023-02-14T23:06:49.432Z,74.57
2023-02-14T23:09:16.505Z,83.03
2023-02-14T23:11:44.491Z,78.67
2023-02-14T23:14:31.278Z,80.07
2023-02-14T23:17:16.439Z,76.80
2023-02-14T23:20:04.519Z,73.93
2023-02-14T23:22:32.876Z,85.67
2023-02-14T23:25:01.950Z,85.13
2023-02-14T23:27:32.806Z,82.63
2023-02-14T23:30:00.709Z,76.03
2023-02-14T23:32:27.767Z,79.80
2023-02-14T23:34:55.918Z,78.73
2023-02-14T23:37:22.902Z,76.00
2023-02-14T23:39:50.199Z,74.10
2023-02-14T23:42:17.754Z,79.40
2023-02-14T23:44:45.733Z,71.87
2023-02-14T23:47:13.999Z,73.10
2023-02-14T23:49:42.120Z,79.47
2023-02-14T23:52:12.561Z,76.90
2023-02-14T23:54:40.791Z,75.57
2023-02-14T23:57:08.747Z,83.23
2023-02-14T23:59:35.900Z,80.23
